createdAt,value
2023-05-18T00:00:45.037Z,2.50
2023-05-18T00:03:12.606Z,3.03
2023-05-18T00:05:40.330Z,2.75
2023-05-18T00:08:10.017Z,2.65
2023-05-18T00:10:39.656Z,2.88
2023-05-18T00:13:08.713Z,2.50
2023-05-18T00:15:36.111Z,2.60
2023-05-18T00:18:03.917Z,2.80
2023-05-18T00:20:36.711Z,3.22
2023-05-18T00:23:10.544Z,2.88
2023-05-18T00:25:37.845Z,3.00
2023-05-18T00:28:07.577Z,2.90
2023-05-18T00:30:34.928Z,3.00
2023-05-18T00:33:02.259Z,3.13
2023-05-18T00:35:30.120Z,3.30
2023-05-18T00:37:57.673Z,3.45
2023-05-18T00:40:29.324Z,3.80
2023-05-18T00:45:23.934Z,3.60
2023-05-18T00:47:53.481Z,3.20
2023-05-18T00:50:25.711Z,3.15
2023-05-18T00:52:53.010Z,3.05
2023-05-18T00:55:22.861Z,3.67
2023-05-18T00:57:50.429Z,3.05
2023-05-18T01:00:17.829Z,3.08
2023-05-18T01:02:45.891Z,2.90
2023-05-18T01:05:13.554Z,3.35
2023-05-18T01:07:43.896Z,2.90
2023-05-18T01:10:13.392Z,3.20
2023-05-18T01:12:56.456Z,2.65
2023-05-18T01:15:38.105Z,2.80
2023-05-18T01:18:18.198Z,3.28
2023-05-18T01:21:19.416Z,3.42
2023-05-18T01:24:21.649Z,3.03
2023-05-18T01:26:50.673Z,2.95
2023-05-18T01:29:23.163Z,3.40
2023-05-18T01:31:50.715Z,2.80
2023-05-18T01:34:20.209Z,3.40
2023-05-18T01:36:52.127Z,3.42
2023-05-18T01:39:19.725Z,3.22
2023-05-18T01:42:05.435Z,3.05
2023-05-18T01:44:55.855Z,3.45
2023-05-18T01:47:26.254Z,2.95
2023-05-18T01:50:10.578Z,3.30
2023-05-18T01:52:44.644Z,2.90
2023-05-18T01:55:17.277Z,3.08
2023-05-18T01:57:49.773Z,3.20
2023-05-18T02:00:18.720Z,3.10
2023-05-18T02:02:51.654Z,3.30
2023-05-18T02:05:21.383Z,3.25
2023-05-18T02:07:48.877Z,3.30
2023-05-18T02:10:16.663Z,3.35
2023-05-18T02:12:43.917Z,3.25
2023-05-18T02:15:11.460Z,3.15
2023-05-18T02:17:39.175Z,3.15
2023-05-18T02:20:09.892Z,2.80
2023-05-18T02:22:39.649Z,3.07
2023-05-18T02:25:07.291Z,3.30
2023-05-18T02:27:36.864Z,3.17
2023-05-18T02:30:08.833Z,3.35
2023-05-18T02:32:39.459Z,3.40
2023-05-18T02:35:08.312Z,3.50
2023-05-18T02:37:44.141Z,3.25
2023-05-18T02:40:15.931Z,3.75
2023-05-18T02:42:43.330Z,3.67
2023-05-18T02:45:10.899Z,3.53
2023-05-18T02:47:38.493Z,3.78
2023-05-18T02:50:06.464Z,4.18
2023-05-18T02:52:34.110Z,4.07
2023-05-18T02:55:03.954Z,3.90
2023-05-18T02:57:34.026Z,4.15
2023-05-18T03:00:01.361Z,3.53
2023-05-18T03:02:28.710Z,4.15
2023-05-18T03:04:57.412Z,4.35
2023-05-18T03:07:24.860Z,3.65
2023-05-18T03:09:52.116Z,3.90
2023-05-18T03:12:21.700Z,3.60
2023-05-18T03:14:49.001Z,4.15
2023-05-18T03:17:16.460Z,4.22
2023-05-18T03:19:43.741Z,4.28
2023-05-18T03:22:11.186Z,4.60
2023-05-18T03:24:40.874Z,4.30
2023-05-18T03:27:08.203Z,4.32
2023-05-18T03:29:35.652Z,4.32
2023-05-18T03:32:05.421Z,4.35
2023-05-18T03:34:32.725Z,4.38
2023-05-18T03:37:00.263Z,4.85
2023-05-18T03:39:27.545Z,4.30
2023-05-18T03:41:57.759Z,4.78
2023-05-18T03:44:25.033Z,4.55
2023-05-18T03:46:55.326Z,4.75
2023-05-18T03:49:22.608Z,4.90
2023-05-18T03:51:50.028Z,4.60
2023-05-18T03:54:17.309Z,4.88
2023-05-18T03:56:44.601Z,5.60
2023-05-18T03:59:14.499Z,5.25
2023-05-18T04:01:44.547Z,5.50
2023-05-18T04:04:18.491Z,5.50
2023-05-18T04:06:54.125Z,5.78
2023-05-18T04:09:24.124Z,5.88
2023-05-18T04:11:51.493Z,6.20
2023-05-18T04:14:20.970Z,6.28
2023-05-18T04:16:48.374Z,6.00
2023-05-18T04:19:15.992Z,6.35
2023-05-18T04:21:50.763Z,6.95
2023-05-18T04:24:21.380Z,5.68
2023-05-18T04:26:48.729Z,6.17
2023-05-18T04:29:18.388Z,6.80
2023-05-18T04:31:50.637Z,6.07
2023-05-18T04:34:19.131Z,5.25
2023-05-18T04:36:48.617Z,6.35
2023-05-18T04:39:20.941Z,5.95
2023-05-18T04:41:48.373Z,5.90
2023-05-18T04:44:18.209Z,5.65
2023-05-18T04:46:47.524Z,6.22
2023-05-18T04:49:15.289Z,6.28
2023-05-18T04:51:46.814Z,6.38
2023-05-18T04:54:16.136Z,6.43
2023-05-18T04:56:43.486Z,6.35
2023-05-18T04:59:10.840Z,6.25
2023-05-18T05:01:38.171Z,5.95
2023-05-18T05:04:07.994Z,6.85
2023-05-18T05:06:35.555Z,6.20
2023-05-18T05:09:05.561Z,6.25
2023-05-18T05:11:35.573Z,6.55
2023-05-18T05:14:05.454Z,6.55
2023-05-18T05:16:35.749Z,6.47
2023-05-18T05:19:03.453Z,6.88
2023-05-18T05:21:31.704Z,7.03
2023-05-18T05:23:58.971Z,6.47
2023-05-18T05:26:31.117Z,6.85
2023-05-18T05:28:58.404Z,6.45
2023-05-18T05:31:25.980Z,7.10
2023-05-18T05:33:55.753Z,7.28
2023-05-18T05:36:23.104Z,6.30
2023-05-18T05:38:50.354Z,6.65
2023-05-18T05:41:17.679Z,7.28
2023-05-18T05:43:47.062Z,7.38
2023-05-18T05:46:17.482Z,7.10
2023-05-18T05:48:44.777Z,7.72
2023-05-18T05:51:12.115Z,7.85
2023-05-18T05:53:43.493Z,8.07
2023-05-18T05:56:10.774Z,8.48
2023-05-18T05:58:38.105Z,8.77
2023-05-18T06:01:08.469Z,7.75
2023-05-18T06:03:36.335Z,7.93
2023-05-18T06:06:03.877Z,7.50
2023-05-18T06:08:33.385Z,7.40
2023-05-18T06:11:00.751Z,7.85
2023-05-18T06:13:30.616Z,7.32
2023-05-18T06:16:00.134Z,7.38
2023-05-18T06:18:27.457Z,7.38
2023-05-18T06:20:54.790Z,7.38
2023-05-18T06:23:23.656Z,7.07
2023-05-18T06:25:50.927Z,7.15
2023-05-18T06:28:20.704Z,7.15
2023-05-18T06:30:48.041Z,7.07
2023-05-18T06:33:15.723Z,6.60
2023-05-18T06:35:43.078Z,7.10
2023-05-18T06:38:10.553Z,6.97
2023-05-18T06:40:37.877Z,7.03
2023-05-18T06:43:08.294Z,6.82
2023-05-18T06:45:38.204Z,6.70
2023-05-18T06:48:08.581Z,7.00
2023-05-18T06:50:36.014Z,7.03
2023-05-18T06:53:07.952Z,7.20
2023-05-18T06:55:35.242Z,7.75
2023-05-18T06:58:04.902Z,7.45
2023-05-18T07:00:32.240Z,8.05
2023-05-18T07:03:04.193Z,9.23
2023-05-18T07:05:32.162Z,9.57
2023-05-18T07:07:59.734Z,8.52
2023-05-18T07:10:28.898Z,7.80
2023-05-18T07:12:58.781Z,7.82
2023-05-18T07:15:28.415Z,8.38
2023-05-18T07:17:58.776Z,7.95
2023-05-18T07:20:29.043Z,11.35
2023-05-18T07:22:56.334Z,8.68
2023-05-18T07:25:26.290Z,7.95
2023-05-18T07:27:57.259Z,8.10
2023-05-18T07:30:26.198Z,8.30
2023-05-18T07:32:53.621Z,8.38
2023-05-18T07:35:22.059Z,8.35
2023-05-18T07:37:51.960Z,10.63
2023-05-18T07:40:19.526Z,9.18
2023-05-18T07:42:47.030Z,12.95
2023-05-18T07:45:14.552Z,9.95
2023-05-18T07:47:44.386Z,8.85
2023-05-18T07:50:11.867Z,7.85
2023-05-18T07:52:41.699Z,8.07
2023-05-18T07:55:09.250Z,7.90
2023-05-18T07:57:36.654Z,8.65
2023-05-18T08:00:09.062Z,9.40
2023-05-18T08:02:36.523Z,42.15
2023-05-18T08:05:04.162Z,13.18
2023-05-18T08:07:36.013Z,9.20
2023-05-18T08:10:05.801Z,7.28
2023-05-18T08:12:33.107Z,6.07
2023-05-18T08:15:05.261Z,5.88
2023-05-18T08:17:32.570Z,6.03
2023-05-18T08:20:00.157Z,5.80
2023-05-18T08:22:27.555Z,5.28
2023-05-18T08:24:57.957Z,5.70
2023-05-18T08:27:28.133Z,6.20
2023-05-18T08:29:55.418Z,6.20
2023-05-18T08:32:24.923Z,8.50
2023-05-18T08:34:54.465Z,7.95
2023-05-18T08:37:22.190Z,8.13
2023-05-18T08:39:49.481Z,7.45
2023-05-18T08:42:27.606Z,5.78
2023-05-18T08:45:15.974Z,5.57
2023-05-18T08:47:45.275Z,5.65
2023-05-18T08:50:21.591Z,6.15
2023-05-18T08:53:00.724Z,5.03
2023-05-18T08:55:31.046Z,4.53
2023-05-18T08:58:03.480Z,6.22
2023-05-18T09:00:32.454Z,5.40
2023-05-18T09:03:02.745Z,5.72
2023-05-18T09:05:31.368Z,6.05
2023-05-18T09:07:59.433Z,6.18
2023-05-18T09:10:26.972Z,7.22
2023-05-18T09:12:56.833Z,6.53
2023-05-18T09:15:27.035Z,5.88
2023-05-18T09:17:58.840Z,7.88
2023-05-18T09:20:27.278Z,5.72
2023-05-18T09:22:59.031Z,6.05
2023-05-18T09:25:27.566Z,5.25
2023-05-18T09:27:57.399Z,5.38
2023-05-18T09:30:25.631Z,4.93
2023-05-18T09:32:55.724Z,4.93
2023-05-18T09:35:25.822Z,5.00
2023-05-18T09:37:53.345Z,5.43
2023-05-18T09:40:33.781Z,7.22
2023-05-18T09:43:07.866Z,6.88
2023-05-18T09:45:45.110Z,5.65
2023-05-18T09:48:13.590Z,5.30
2023-05-18T09:50:41.080Z,4.95
2023-05-18T09:53:09.754Z,5.28
2023-05-18T09:55:45.231Z,4.63
2023-05-18T09:58:15.511Z,6.15
2023-05-18T10:00:51.804Z,4.80
2023-05-18T10:03:23.789Z,4.60
2023-05-18T10:05:51.688Z,4.80
2023-05-18T10:08:18.991Z,5.45
2023-05-18T10:10:49.809Z,4.80
2023-05-18T10:13:20.925Z,4.22
2023-05-18T10:15:59.457Z,5.28
2023-05-18T10:18:46.360Z,4.45
2023-05-18T10:21:17.824Z,4.68
2023-05-18T10:23:48.146Z,5.18
2023-05-18T10:26:23.294Z,4.50
2023-05-18T10:28:55.753Z,4.40
2023-05-18T10:31:24.962Z,4.70
2023-05-18T10:33:55.667Z,4.53
2023-05-18T10:36:25.879Z,4.50
2023-05-18T10:38:54.841Z,4.50
2023-05-18T10:41:28.979Z,4.35
2023-05-18T10:44:02.369Z,4.15
2023-05-18T10:46:36.411Z,3.63
2023-05-18T10:49:13.058Z,3.33
2023-05-18T10:51:46.246Z,3.53
2023-05-18T10:54:16.763Z,3.08
2023-05-18T10:56:50.426Z,3.45
2023-05-18T10:59:18.865Z,3.22
2023-05-18T11:01:48.720Z,2.38
2023-05-18T11:04:16.256Z,2.47
2023-05-18T11:06:43.628Z,2.60
2023-05-18T11:09:23.621Z,2.70
2023-05-18T11:11:52.918Z,2.63
2023-05-18T11:14:32.663Z,2.38
2023-05-18T11:17:21.860Z,2.50
2023-05-18T11:20:07.962Z,2.42
2023-05-18T11:22:56.890Z,2.30
2023-05-18T11:25:35.539Z,2.90
2023-05-18T11:28:08.458Z,2.50
2023-05-18T11:30:36.582Z,2.50
2023-05-18T11:33:15.396Z,2.45
2023-05-18T11:35:57.845Z,2.63
2023-05-18T11:38:55.797Z,2.30
2023-05-18T11:41:36.255Z,2.83
2023-05-18T11:44:15.160Z,2.20
2023-05-18T11:46:52.254Z,2.45
2023-05-18T11:49:23.553Z,2.67
2023-05-18T11:52:12.148Z,2.20
2023-05-18T11:54:49.709Z,2.20
2023-05-18T11:57:18.866Z,2.30
2023-05-18T11:59:48.509Z,2.67
2023-05-18T12:02:40.310Z,3.08
2023-05-18T12:07:41.827Z,2.80
2023-05-18T12:10:14.722Z,3.35
2023-05-18T12:12:42.960Z,3.30
2023-05-18T12:15:16.844Z,2.42
2023-05-18T12:17:46.857Z,2.65
2023-05-18T12:20:25.133Z,3.40
2023-05-18T12:22:54.663Z,12.85
2023-05-18T12:25:26.923Z,6.38
2023-05-18T12:27:55.408Z,3.50
2023-05-18T12:30:36.693Z,3.75
2023-05-18T12:33:07.416Z,3.25
2023-05-18T12:35:35.122Z,2.20
2023-05-18T12:38:03.167Z,2.30
2023-05-18T12:40:46.709Z,2.70
2023-05-18T12:43:14.665Z,2.10
2023-05-18T12:45:44.378Z,2.10
2023-05-18T12:48:13.107Z,1.80
2023-05-18T12:50:50.914Z,2.10
2023-05-18T12:53:18.873Z,1.88
2023-05-18T12:55:56.530Z,2.53
2023-05-18T12:58:23.913Z,2.00
2023-05-18T13:00:53.819Z,1.88
2023-05-18T13:03:22.428Z,1.85
2023-05-18T13:06:13.600Z,1.80
2023-05-18T13:08:41.409Z,1.67
2023-05-18T13:11:14.701Z,1.80
2023-05-18T13:14:05.698Z,1.60
2023-05-18T13:16:39.163Z,1.90
2023-05-18T13:19:16.490Z,1.77
2023-05-18T13:21:43.903Z,1.65
2023-05-18T13:24:14.075Z,1.95
2023-05-18T13:26:41.468Z,1.98
2023-05-18T13:29:08.860Z,1.88
2023-05-18T13:31:36.399Z,1.85
2023-05-18T13:34:03.864Z,1.65
2023-05-18T13:36:31.668Z,1.88
2023-05-18T13:38:58.953Z,1.73
2023-05-18T13:41:26.350Z,1.92
2023-05-18T13:43:53.668Z,1.80
2023-05-18T13:46:23.569Z,1.83
2023-05-18T13:48:51.012Z,2.42
2023-05-18T13:51:22.865Z,2.13
2023-05-18T13:53:50.188Z,2.00
2023-05-18T13:56:17.549Z,1.83
2023-05-18T13:58:44.911Z,1.90
2023-05-18T14:01:17.914Z,1.67
2023-05-18T14:03:45.473Z,1.60
2023-05-18T14:06:15.085Z,1.75
2023-05-18T14:08:42.428Z,1.80
2023-05-18T14:11:09.707Z,1.85
2023-05-18T14:13:41.775Z,1.63
2023-05-18T14:16:09.098Z,1.73
2023-05-18T14:18:38.923Z,2.15
2023-05-18T14:21:06.290Z,2.53
2023-05-18T14:23:33.551Z,2.10
2023-05-18T14:26:01.185Z,1.55
2023-05-18T14:28:30.164Z,1.48
2023-05-18T14:30:59.801Z,1.50
2023-05-18T14:33:27.116Z,1.60
2023-05-18T14:35:57.805Z,1.48
2023-05-18T14:38:27.667Z,1.30
2023-05-18T14:40:54.958Z,1.40
2023-05-18T14:43:22.242Z,1.92
2023-05-18T14:46:04.220Z,1.27
2023-05-18T14:48:35.864Z,1.27
2023-05-18T14:51:05.587Z,1.30
2023-05-18T14:53:32.872Z,1.10
2023-05-18T14:56:04.183Z,1.42
2023-05-18T14:58:31.977Z,1.52
2023-05-18T15:01:01.509Z,1.27
2023-05-18T15:03:28.949Z,1.45
2023-05-18T15:05:56.744Z,1.52
2023-05-18T15:08:26.760Z,1.45
2023-05-18T15:10:54.113Z,1.48
2023-05-18T15:13:21.636Z,1.58
2023-05-18T15:15:54.141Z,1.80
2023-05-18T15:18:21.434Z,1.98
2023-05-18T15:20:51.229Z,2.10
2023-05-18T15:23:18.555Z,1.73
2023-05-18T15:25:52.513Z,1.63
2023-05-18T15:28:19.837Z,2.42
2023-05-18T15:30:47.140Z,2.63
2023-05-18T15:33:14.480Z,1.95
2023-05-18T15:35:41.823Z,1.80
2023-05-18T15:38:09.138Z,2.08
2023-05-18T15:40:36.619Z,1.80
2023-05-18T15:43:04.036Z,1.88
2023-05-18T15:45:34.020Z,2.03
2023-05-18T15:48:03.982Z,2.00
2023-05-18T15:50:31.422Z,1.63
2023-05-18T15:52:58.918Z,1.75
2023-05-18T15:55:26.286Z,2.00
2023-05-18T15:57:58.108Z,2.25
2023-05-18T16:00:28.069Z,2.03
2023-05-18T16:02:57.923Z,2.25
2023-05-18T16:05:27.549Z,2.20
2023-05-18T16:07:54.841Z,1.90
2023-05-18T16:10:24.646Z,2.22
2023-05-18T16:12:51.942Z,2.08
2023-05-18T16:15:24.420Z,2.38
2023-05-18T16:17:51.806Z,2.13
2023-05-18T16:20:21.522Z,2.50
2023-05-18T16:22:51.450Z,2.10
2023-05-18T16:25:18.781Z,2.58
2023-05-18T16:27:48.312Z,2.15
2023-05-18T16:30:15.817Z,2.20
2023-05-18T16:32:46.137Z,2.50
2023-05-18T16:35:13.525Z,2.20
2023-05-18T16:37:40.868Z,2.38
2023-05-18T16:40:08.673Z,2.55
2023-05-18T16:42:36.048Z,2.45
2023-05-18T16:45:03.757Z,2.47
2023-05-18T16:47:32.673Z,2.22
2023-05-18T16:50:00.622Z,2.72
2023-05-18T16:52:33.283Z,2.70
2023-05-18T16:55:03.021Z,2.53
2023-05-18T16:57:33.797Z,2.95
2023-05-18T17:00:01.251Z,2.67
2023-05-18T17:02:31.005Z,2.95
2023-05-18T17:04:59.019Z,2.90
2023-05-18T17:07:26.322Z,2.65
2023-05-18T17:09:53.662Z,2.63
2023-05-18T17:12:20.969Z,2.80
2023-05-18T17:14:52.116Z,3.17
2023-05-18T17:17:22.121Z,2.92
2023-05-18T17:19:49.470Z,2.80
2023-05-18T17:22:16.855Z,3.00
2023-05-18T17:24:44.169Z,2.92
2023-05-18T17:27:14.009Z,2.67
2023-05-18T17:29:41.741Z,3.03
2023-05-18T17:32:09.024Z,2.92
2023-05-18T17:34:36.345Z,3.15
2023-05-18T17:37:08.135Z,2.97
2023-05-18T17:39:37.950Z,3.13
2023-05-18T17:42:07.557Z,2.97
2023-05-18T17:44:37.170Z,2.97
2023-05-18T17:47:05.113Z,3.30
2023-05-18T17:49:32.614Z,3.60
2023-05-18T17:52:02.308Z,3.30
2023-05-18T17:54:29.770Z,3.03
2023-05-18T17:56:59.187Z,3.35
2023-05-18T17:59:29.012Z,2.78
2023-05-18T18:01:56.340Z,3.30
2023-05-18T18:04:23.940Z,2.88
2023-05-18T18:06:54.573Z,2.90
2023-05-18T18:09:22.276Z,3.40
2023-05-18T18:11:49.716Z,2.90
2023-05-18T18:14:17.408Z,2.75
2023-05-18T18:16:44.994Z,3.30
2023-05-18T18:19:15.078Z,2.60
2023-05-18T18:21:44.989Z,3.35
2023-05-18T18:24:14.023Z,3.13
2023-05-18T18:26:41.516Z,2.88
2023-05-18T18:29:08.814Z,2.92
2023-05-18T18:31:36.202Z,3.25
2023-05-18T18:34:03.994Z,3.22
2023-05-18T18:36:31.661Z,3.63
2023-05-18T18:38:59.046Z,4.22
2023-05-18T18:41:26.329Z,3.53
2023-05-18T18:43:54.725Z,3.65
2023-05-18T18:46:22.137Z,3.22
2023-05-18T18:48:49.483Z,3.55
2023-05-18T18:51:16.879Z,3.80
2023-05-18T18:53:44.211Z,3.03
2023-05-18T18:56:11.677Z,3.30
2023-05-18T18:58:38.983Z,3.53
2023-05-18T19:01:08.425Z,3.40
2023-05-18T19:03:38.209Z,3.08
2023-05-18T19:06:05.608Z,3.50
2023-05-18T19:08:37.772Z,3.60
2023-05-18T19:11:05.067Z,3.95
2023-05-18T19:13:32.438Z,3.90
2023-05-18T19:15:59.913Z,3.90
2023-05-18T19:18:29.597Z,3.60
2023-05-18T19:20:58.998Z,3.72
2023-05-18T19:23:26.326Z,3.75
2023-05-18T19:25:56.339Z,3.97
2023-05-18T19:28:23.630Z,3.97
2023-05-18T19:30:50.908Z,4.10
2023-05-18T19:33:18.240Z,4.22
2023-05-18T19:35:49.559Z,3.85
2023-05-18T19:38:19.502Z,5.45
2023-05-18T19:40:46.802Z,9.07
2023-05-18T19:43:17.043Z,5.40
2023-05-18T19:45:44.486Z,4.32
2023-05-18T19:48:12.589Z,3.90
2023-05-18T19:50:39.908Z,3.92
2023-05-18T19:53:09.409Z,4.20
2023-05-18T19:55:36.785Z,4.07
2023-05-18T19:58:04.128Z,3.78
2023-05-18T20:00:33.095Z,3.85
2023-05-18T20:03:03.543Z,3.92
2023-05-18T20:05:30.944Z,4.15
2023-05-18T20:08:03.024Z,3.90
2023-05-18T20:10:32.942Z,3.85
2023-05-18T20:13:05.490Z,3.80
2023-05-18T20:15:37.164Z,3.90
2023-05-18T20:18:06.866Z,4.13
2023-05-18T20:20:37.085Z,4.35
2023-05-18T20:23:06.830Z,4.03
2023-05-18T20:25:37.371Z,4.22
2023-05-18T20:28:07.387Z,4.25
2023-05-18T20:30:36.957Z,3.92
2023-05-18T20:33:07.185Z,4.20
2023-05-18T20:35:36.991Z,5.05
2023-05-18T20:38:04.589Z,4.43
2023-05-18T20:40:32.347Z,7.82
2023-05-18T20:43:06.115Z,7.90
2023-05-18T20:45:33.482Z,6.28
2023-05-18T20:48:00.907Z,5.40
2023-05-18T20:50:28.234Z,4.57
2023-05-18T20:52:57.983Z,4.32
2023-05-18T20:55:25.782Z,4.50
2023-05-18T20:57:53.132Z,4.22
2023-05-18T21:00:22.819Z,4.68
2023-05-18T21:02:54.747Z,3.65
2023-05-18T21:05:23.379Z,3.95
2023-05-18T21:07:51.583Z,4.30
2023-05-18T21:10:21.636Z,4.45
2023-05-18T21:12:48.920Z,4.50
2023-05-18T21:15:16.293Z,4.55
2023-05-18T21:17:46.151Z,4.80
2023-05-18T21:20:15.635Z,4.68
2023-05-18T21:22:48.070Z,4.65
2023-05-18T21:25:15.592Z,4.88
2023-05-18T21:27:42.963Z,4.75
2023-05-18T21:30:11.166Z,4.38
2023-05-18T21:32:41.090Z,4.75
2023-05-18T21:35:08.425Z,4.97
2023-05-18T21:37:38.598Z,4.25
2023-05-18T21:40:11.608Z,4.60
2023-05-18T21:42:44.946Z,4.90
2023-05-18T21:45:13.535Z,4.72
2023-05-18T21:47:45.302Z,4.68
2023-05-18T21:50:12.619Z,5.20
2023-05-18T21:52:39.900Z,4.85
2023-05-18T21:55:07.734Z,4.25
2023-05-18T21:57:35.584Z,4.45
2023-05-18T22:00:06.380Z,4.55
2023-05-18T22:02:36.105Z,4.65
2023-05-18T22:05:06.086Z,4.90
2023-05-18T22:07:36.024Z,4.40
2023-05-18T22:10:03.558Z,5.07
2023-05-18T22:12:31.788Z,4.38
2023-05-18T22:15:01.565Z,4.53
2023-05-18T22:17:31.304Z,4.82
2023-05-18T22:19:58.671Z,5.28
2023-05-18T22:22:30.250Z,7.90
2023-05-18T22:24:58.232Z,5.40
2023-05-18T22:27:25.646Z,5.63
2023-05-18T22:29:52.951Z,4.90
2023-05-18T22:32:20.728Z,4.40
2023-05-18T22:34:50.781Z,4.15
2023-05-18T22:37:18.116Z,4.63
2023-05-18T22:39:47.775Z,4.40
2023-05-18T22:42:15.056Z,4.72
2023-05-18T22:44:42.354Z,4.57
2023-05-18T22:47:13.481Z,4.75
2023-05-18T22:49:41.424Z,3.90
2023-05-18T22:52:08.679Z,4.60
2023-05-18T22:54:35.978Z,4.75
2023-05-18T22:57:03.412Z,4.45
2023-05-18T22:59:30.725Z,4.80
2023-05-18T23:01:58.044Z,4.35
2023-05-18T23:04:25.393Z,4.18
2023-05-18T23:06:54.151Z,4.30
2023-05-18T23:09:21.429Z,4.45
2023-05-18T23:11:50.493Z,4.68
2023-05-18T23:14:20.250Z,4.13
2023-05-18T23:16:50.197Z,4.38
2023-05-18T23:19:20.064Z,4.47
2023-05-18T23:21:52.092Z,4.45
2023-05-18T23:24:19.615Z,4.10
2023-05-18T23:26:51.488Z,4.43
2023-05-18T23:29:18.819Z,4.13
2023-05-18T23:31:48.467Z,4.60
2023-05-18T23:34:15.992Z,4.38
2023-05-18T23:36:46.769Z,4.18
2023-05-18T23:39:15.064Z,4.10
2023-05-18T23:41:43.689Z,4.45
2023-05-18T23:44:11.289Z,4.70
2023-05-18T23:46:38.882Z,4.72
2023-05-18T23:49:09.362Z,4.55
2023-05-18T23:51:41.534Z,4.70
2023-05-18T23:54:09.496Z,5.18
2023-05-18T23:56:39.325Z,5.30
2023-05-18T23:59:06.887Z,5.35
